SLPG weather

Progreso Airport
Moxos, El Beni Department, Bolivia

Public forecast

Using degrees Celsius for public forecast. Weather courtesy of forecast.io.

METAR (pilot weather report)

Report is more than 6 hours old.

Closest report is Santa Ana Del Yacuma Airport, 25.2 nm (46.7 km) N. Retrieved 2019/02/15 23:00 UTC (10 hours ago):

SLSA 152300Z 30007KT 6000 VCSH SCT017 FEW023CB BKN200 27/24 Q1009

TAF (pilot weather forecast)

Forecast is more than 12 hours old.

Closest forecast is Teniente Av. Jorge Henrich Arauz Airport, 46.7 nm (86.6 km) SE. Retrieved 2019/02/14 18:00 UTC (2 days ago):

TAF SLTR 141700Z 1418/1518 30008KT 9999 SCT020 TX32/1420Z TN22/1510Z PROB040 TEMPO 1419/1422 6000 TSRA FEW023CB BKN080 BECMG 1423/1502 00000KT 8000 RA SCT012 BKN070